createdAt,value
2022-11-24T00:01:24.173Z,99.90
2022-11-24T00:04:00.713Z,99.90
2022-11-24T00:06:29.745Z,99.90
2022-11-24T00:08:57.028Z,99.90
2022-11-24T00:11:27.705Z,99.90
2022-11-24T00:13:55.359Z,99.90
2022-11-24T00:16:25.644Z,99.90
2022-11-24T00:18:55.443Z,99.90
2022-11-24T00:21:23.745Z,99.90
2022-11-24T00:23:51.528Z,99.90
2022-11-24T00:26:24.029Z,99.90
2022-11-24T00:28:52.505Z,99.90
2022-11-24T00:31:31.487Z,99.90
2022-11-24T00:34:01.583Z,99.90
2022-11-24T00:36:30.746Z,99.90
2022-11-24T00:39:00.882Z,99.90
2022-11-24T00:41:29.211Z,99.90
2022-11-24T00:43:56.628Z,99.90
2022-11-24T00:46:25.087Z,99.90
2022-11-24T00:48:52.475Z,99.90
2022-11-24T00:51:21.508Z,99.90
2022-11-24T00:53:49.151Z,99.90
2022-11-24T00:56:16.392Z,99.90
2022-11-24T00:58:43.564Z,99.90
2022-11-24T01:01:13.848Z,99.90
2022-11-24T01:03:42.124Z,99.90
2022-11-24T01:06:17.773Z,99.90
2022-11-24T01:08:45.273Z,99.90
2022-11-24T01:11:20.116Z,99.90
2022-11-24T01:13:49.627Z,99.90
2022-11-24T01:16:20.628Z,99.90
2022-11-24T01:18:48.672Z,99.90
2022-11-24T01:21:16.713Z,99.90
2022-11-24T01:23:44.167Z,99.90
2022-11-24T01:26:14.981Z,99.90
2022-11-24T01:28:46.976Z,99.90
2022-11-24T01:31:15.389Z,99.90
2022-11-24T01:33:42.789Z,99.90
2022-11-24T01:36:10.278Z,99.90
2022-11-24T01:38:37.470Z,99.90
2022-11-24T01:41:07.916Z,99.90
2022-11-24T01:43:35.077Z,99.90
2022-11-24T01:46:11.135Z,99.90
2022-11-24T01:48:44.651Z,99.90
2022-11-24T01:51:16.619Z,99.90
2022-11-24T01:53:49.018Z,99.90
2022-11-24T01:56:16.209Z,99.90
2022-11-24T01:58:45.433Z,99.90
2022-11-24T02:01:13.525Z,99.90
2022-11-24T02:03:43.899Z,99.90
2022-11-24T02:06:20.003Z,99.90
2022-11-24T02:09:03.908Z,99.90
2022-11-24T02:11:37.830Z,99.90
2022-11-24T02:14:13.825Z,99.90
2022-11-24T02:16:44.051Z,99.90
2022-11-24T02:19:43.215Z,99.90
2022-11-24T02:22:38.689Z,99.90
2022-11-24T02:25:35.511Z,99.90
2022-11-24T02:28:07.221Z,99.90
2022-11-24T02:30:35.160Z,99.90
2022-11-24T02:33:02.904Z,99.90
2022-11-24T02:35:31.203Z,99.90
2022-11-24T02:37:58.334Z,99.90
2022-11-24T02:40:30.051Z,99.90
2022-11-24T02:43:08.014Z,99.90
2022-11-24T02:45:35.203Z,99.90
2022-11-24T02:48:02.345Z,99.90
2022-11-24T02:50:29.513Z,99.90
2022-11-24T02:52:56.758Z,99.90
2022-11-24T02:55:23.988Z,99.90
2022-11-24T02:57:51.214Z,99.90
2022-11-24T03:00:18.788Z,99.90
2022-11-24T03:02:46.665Z,99.90
2022-11-24T03:05:14.205Z,99.90
2022-11-24T03:07:41.400Z,99.90
2022-11-24T03:10:08.929Z,99.90
2022-11-24T03:12:36.149Z,99.90
2022-11-24T03:15:03.849Z,99.90
2022-11-24T03:17:31.538Z,99.90
2022-11-24T03:20:04.540Z,99.90
2022-11-24T03:22:32.280Z,99.90
2022-11-24T03:24:59.484Z,99.90
2022-11-24T03:27:26.691Z,99.90
2022-11-24T03:29:53.933Z,99.90
2022-11-24T03:32:21.089Z,99.90
2022-11-24T03:34:48.287Z,99.90
2022-11-24T03:37:15.744Z,99.90
2022-11-24T03:39:43.067Z,99.90
2022-11-24T03:42:11.057Z,99.90
2022-11-24T03:44:38.623Z,99.90
2022-11-24T03:47:05.807Z,99.90
2022-11-24T03:49:33.314Z,99.90
2022-11-24T03:52:05.130Z,99.90
2022-11-24T03:54:35.377Z,99.90
2022-11-24T03:57:02.820Z,99.90
2022-11-24T03:59:30.334Z,99.90
2022-11-24T04:01:57.969Z,99.90
2022-11-24T04:04:25.121Z,99.90
2022-11-24T04:06:52.594Z,99.90
2022-11-24T04:09:19.795Z,99.90
2022-11-24T04:12:05.471Z,99.90
2022-11-24T04:14:32.980Z,99.90
2022-11-24T04:17:00.498Z,99.90
2022-11-24T04:19:27.898Z,99.90
2022-11-24T04:21:55.165Z,99.90
2022-11-24T04:24:22.385Z,99.90
2022-11-24T04:26:49.951Z,99.90
2022-11-24T04:29:17.087Z,99.90
2022-11-24T04:31:44.272Z,99.90
2022-11-24T04:34:11.645Z,99.90
2022-11-24T04:36:40.870Z,99.90
2022-11-24T04:39:22.907Z,99.90
2022-11-24T04:41:53.633Z,99.90
2022-11-24T04:44:20.866Z,99.90
2022-11-24T04:46:48.391Z,99.90
2022-11-24T04:49:15.817Z,99.90
2022-11-24T04:51:43.292Z,99.90
2022-11-24T04:54:12.537Z,99.90
2022-11-24T04:56:41.492Z,99.90
2022-11-24T04:59:13.835Z,99.90
2022-11-24T05:01:42.830Z,99.90
2022-11-24T05:04:11.683Z,99.90
2022-11-24T05:06:39.350Z,99.90
2022-11-24T05:09:07.916Z,99.90
2022-11-24T05:11:35.233Z,99.90
2022-11-24T05:14:02.428Z,99.90
2022-11-24T05:16:29.586Z,99.90
2022-11-24T05:18:56.858Z,99.90
2022-11-24T05:21:24.021Z,99.90
2022-11-24T05:23:51.225Z,99.90
2022-11-24T05:26:18.924Z,99.90
2022-11-24T05:28:46.084Z,99.90
2022-11-24T05:31:13.339Z,99.90
2022-11-24T05:33:40.739Z,99.90
2022-11-24T05:36:08.717Z,99.90
2022-11-24T05:38:35.875Z,99.90
2022-11-24T05:41:04.986Z,99.90
2022-11-24T05:43:32.219Z,99.90
2022-11-24T05:46:02.554Z,99.90
2022-11-24T05:48:29.801Z,99.90
2022-11-24T05:50:58.500Z,99.90
2022-11-24T05:53:26.926Z,99.90
2022-11-24T05:55:54.263Z,99.90
2022-11-24T05:58:23.614Z,99.90
2022-11-24T06:00:51.304Z,99.90
2022-11-24T06:03:18.528Z,99.90
2022-11-24T06:05:47.067Z,99.90
2022-11-24T06:08:15.099Z,99.90
2022-11-24T06:10:42.691Z,99.90
2022-11-24T06:13:09.961Z,99.90
2022-11-24T06:15:37.682Z,99.90
2022-11-24T06:18:05.044Z,99.90
2022-11-24T06:20:33.116Z,99.90
2022-11-24T06:23:01.051Z,99.90
2022-11-24T06:25:29.090Z,99.90
2022-11-24T06:27:56.417Z,99.90
2022-11-24T06:30:23.573Z,99.90
2022-11-24T06:32:55.136Z,99.90
2022-11-24T06:35:22.455Z,99.90
2022-11-24T06:37:49.820Z,99.90
2022-11-24T06:40:17.189Z,99.90
2022-11-24T06:42:51.222Z,99.90
2022-11-24T06:45:18.565Z,99.90
2022-11-24T06:47:45.864Z,99.90
2022-11-24T06:50:13.602Z,99.90
2022-11-24T06:52:40.786Z,99.90
2022-11-24T06:55:08.507Z,99.90
2022-11-24T06:57:36.136Z,99.90
2022-11-24T07:00:07.875Z,99.90
2022-11-24T07:02:35.442Z,99.90
2022-11-24T07:05:02.967Z,99.90
2022-11-24T07:07:30.690Z,99.90
2022-11-24T07:09:57.868Z,99.90
2022-11-24T07:12:25.081Z,99.90
2022-11-24T07:14:52.246Z,99.90
2022-11-24T07:17:19.411Z,99.90
2022-11-24T07:19:47.171Z,99.90
2022-11-24T07:22:14.773Z,99.90
2022-11-24T07:24:42.287Z,99.90
2022-11-24T07:27:09.753Z,99.90
2022-11-24T07:29:36.893Z,99.90
2022-11-24T07:32:05.841Z,99.90
2022-11-24T07:34:33.414Z,99.90
2022-11-24T07:37:00.708Z,99.90
2022-11-24T07:39:27.825Z,99.90
2022-11-24T07:41:55.126Z,99.90
2022-11-24T07:44:22.265Z,99.90
2022-11-24T07:46:51.178Z,99.90
2022-11-24T07:49:19.319Z,99.90
2022-11-24T07:51:46.475Z,99.90
2022-11-24T07:54:13.680Z,99.90
2022-11-24T07:56:41.116Z,99.90
2022-11-24T07:59:08.300Z,99.90
2022-11-24T08:01:35.851Z,99.90
2022-11-24T08:04:03.063Z,99.90
2022-11-24T08:06:38.447Z,99.90
2022-11-24T08:09:06.833Z,99.90
2022-11-24T08:11:34.533Z,99.90
2022-11-24T08:14:01.669Z,99.90
2022-11-24T08:16:29.027Z,99.90
2022-11-24T08:18:56.973Z,99.90
2022-11-24T08:21:24.641Z,99.90
2022-11-24T08:23:56.290Z,99.90
2022-11-24T08:26:24.890Z,99.90
2022-11-24T08:28:58.231Z,99.90
2022-11-24T08:31:32.558Z,99.90
2022-11-24T08:34:01.051Z,99.90
2022-11-24T08:36:28.702Z,99.90
2022-11-24T08:38:57.323Z,99.90
2022-11-24T08:41:25.336Z,99.90
2022-11-24T08:43:53.635Z,99.90
2022-11-24T08:46:21.105Z,99.90
2022-11-24T08:48:50.103Z,99.90
2022-11-24T08:51:20.954Z,99.90
2022-11-24T08:53:48.309Z,99.90
2022-11-24T08:56:15.585Z,99.90
2022-11-24T08:58:43.001Z,99.90
2022-11-24T09:01:13.808Z,99.90
2022-11-24T09:03:48.562Z,99.90
2022-11-24T09:06:22.460Z,99.90
2022-11-24T09:08:50.212Z,99.90
2022-11-24T09:11:18.736Z,99.90
2022-11-24T09:13:46.334Z,99.90
2022-11-24T09:16:23.513Z,99.90
2022-11-24T09:18:59.354Z,99.90
2022-11-24T09:21:27.506Z,99.90
2022-11-24T09:23:55.244Z,99.90
2022-11-24T09:26:25.662Z,99.90
2022-11-24T09:28:54.535Z,99.90
2022-11-24T09:31:24.961Z,99.90
2022-11-24T09:33:52.577Z,99.90
2022-11-24T09:36:20.902Z,99.90
2022-11-24T09:38:48.602Z,99.90
2022-11-24T09:41:21.554Z,99.90
2022-11-24T09:44:11.309Z,99.90
2022-11-24T09:46:58.639Z,99.90
2022-11-24T09:49:51.109Z,99.90
2022-11-24T09:52:39.151Z,99.90
2022-11-24T09:55:39.562Z,99.90
2022-11-24T09:58:17.110Z,99.90
2022-11-24T10:00:46.311Z,99.90
2022-11-24T10:03:24.536Z,99.90
2022-11-24T10:05:53.213Z,99.90
2022-11-24T10:08:23.065Z,99.90
2022-11-24T10:10:59.648Z,99.90
2022-11-24T10:13:54.768Z,99.90
2022-11-24T10:16:46.221Z,99.90
2022-11-24T10:19:54.912Z,99.90
2022-11-24T10:22:33.434Z,99.90
2022-11-24T10:25:15.275Z,99.90
2022-11-24T10:27:50.148Z,99.90
2022-11-24T10:30:20.652Z,99.90
2022-11-24T10:33:18.822Z,99.90
2022-11-24T10:36:08.249Z,99.90
2022-11-24T10:38:42.580Z,99.90
2022-11-24T10:41:45.739Z,99.90
2022-11-24T10:44:17.007Z,99.90
2022-11-24T10:46:44.470Z,99.90
2022-11-24T10:49:24.665Z,99.90
2022-11-24T10:52:06.144Z,99.90
2022-11-24T10:54:35.852Z,99.90
2022-11-24T10:57:03.338Z,99.90
2022-11-24T10:59:35.811Z,99.90
2022-11-24T11:02:36.974Z,99.90
2022-11-24T11:05:33.511Z,98.00
2022-11-24T11:08:25.694Z,96.10
2022-11-24T11:11:22.449Z,95.50
2022-11-24T11:14:01.712Z,94.20
2022-11-24T11:16:42.605Z,94.30
2022-11-24T11:19:52.381Z,93.80
2022-11-24T11:22:35.874Z,92.30
2022-11-24T11:25:23.008Z,93.10
2022-11-24T11:27:50.776Z,90.70
2022-11-24T11:36:14.462Z,91.30
2022-11-24T11:38:43.961Z,91.20
2022-11-24T11:41:20.305Z,91.70
2022-11-24T11:43:53.307Z,91.40
2022-11-24T11:46:21.109Z,93.10
2022-11-24T11:48:48.550Z,94.80
2022-11-24T11:51:23.651Z,96.50
2022-11-24T11:54:16.755Z,97.30
2022-11-24T11:56:45.910Z,98.50
2022-11-24T11:59:24.667Z,99.40
2022-11-24T12:02:10.567Z,99.90
2022-11-24T12:04:48.704Z,99.90
2022-11-24T12:07:26.298Z,99.90
2022-11-24T12:10:14.377Z,99.90
2022-11-24T12:12:49.881Z,99.90
2022-11-24T12:15:44.668Z,99.90
2022-11-24T12:18:57.606Z,99.90
2022-11-24T12:21:40.436Z,99.90
2022-11-24T12:24:29.364Z,99.90
2022-11-24T12:27:06.426Z,99.90
2022-11-24T12:29:53.052Z,99.90
2022-11-24T12:32:41.538Z,99.90
2022-11-24T12:35:29.602Z,99.90
2022-11-24T12:38:27.436Z,99.90
2022-11-24T12:41:33.724Z,99.90
2022-11-24T12:43:57.571Z,99.90
2022-11-24T12:46:53.895Z,99.90
2022-11-24T12:49:31.440Z,99.90
2022-11-24T12:52:04.361Z,99.90
2022-11-24T12:54:38.661Z,99.90
2022-11-24T12:57:17.373Z,99.90
2022-11-24T13:00:00.061Z,99.90
2022-11-24T13:02:55.661Z,99.90
2022-11-24T13:06:10.628Z,99.90
2022-11-24T13:08:38.446Z,99.90
2022-11-24T13:11:21.153Z,99.90
2022-11-24T13:14:18.534Z,99.90
2022-11-24T13:19:49.833Z,99.90
2022-11-24T13:22:24.569Z,99.90
2022-11-24T13:25:16.266Z,99.90
2022-11-24T13:27:46.257Z,99.90
2022-11-24T13:30:33.707Z,99.90
2022-11-24T13:33:16.818Z,99.90
2022-11-24T13:36:02.796Z,99.90
2022-11-24T13:38:44.964Z,99.90
2022-11-24T13:41:32.297Z,99.90
2022-11-24T13:44:15.369Z,99.90
2022-11-24T13:47:06.132Z,99.90
2022-11-24T13:49:41.462Z,99.90
2022-11-24T13:52:39.665Z,99.90
2022-11-24T13:55:12.915Z,99.90
2022-11-24T13:57:53.556Z,99.90
2022-11-24T14:00:23.869Z,99.90
2022-11-24T14:02:53.665Z,99.90
2022-11-24T14:05:33.336Z,99.90
2022-11-24T14:08:01.081Z,99.90
2022-11-24T14:10:35.965Z,99.90
2022-11-24T14:13:33.862Z,99.90
2022-11-24T14:16:26.289Z,99.90
2022-11-24T14:18:53.640Z,99.90
2022-11-24T14:21:30.810Z,99.90
2022-11-24T14:24:00.152Z,99.90
2022-11-24T14:26:39.635Z,99.90
2022-11-24T14:29:14.263Z,99.90
2022-11-24T14:31:42.024Z,99.90
2022-11-24T14:34:12.999Z,99.90
2022-11-24T14:36:41.340Z,99.90
2022-11-24T14:39:14.216Z,99.90
2022-11-24T14:41:43.781Z,99.90
2022-11-24T14:44:16.593Z,99.90
2022-11-24T14:46:44.009Z,99.90
2022-11-24T14:49:20.700Z,99.90
2022-11-24T14:51:55.917Z,99.90
2022-11-24T14:54:23.798Z,99.90
2022-11-24T14:57:01.132Z,99.90
2022-11-24T14:59:30.428Z,99.90
2022-11-24T15:01:59.517Z,99.90
2022-11-24T15:07:27.021Z,99.90
2022-11-24T15:10:00.653Z,99.90
2022-11-24T15:12:52.636Z,99.90
2022-11-24T15:15:22.683Z,99.90
2022-11-24T15:17:53.660Z,99.90
2022-11-24T15:20:42.858Z,99.90
2022-11-24T15:23:20.373Z,99.90
2022-11-24T15:25:48.130Z,99.90
2022-11-24T15:28:15.441Z,99.90
2022-11-24T15:30:42.706Z,99.90
2022-11-24T15:33:18.099Z,99.90
2022-11-24T15:35:46.153Z,99.90
2022-11-24T15:38:13.722Z,99.90
2022-11-24T15:40:43.281Z,99.90
2022-11-24T15:43:37.727Z,99.90
2022-11-24T15:46:05.848Z,99.90
2022-11-24T15:48:33.771Z,99.90
2022-11-24T15:51:03.684Z,99.90
2022-11-24T15:53:38.530Z,99.90
2022-11-24T15:56:09.121Z,99.90
2022-11-24T15:58:36.307Z,99.90
2022-11-24T16:01:03.527Z,99.90
2022-11-24T16:03:47.815Z,99.90
2022-11-24T16:06:24.224Z,99.90
2022-11-24T16:08:53.857Z,99.90
2022-11-24T16:11:21.683Z,99.90
2022-11-24T16:13:52.836Z,99.90
2022-11-24T16:16:22.876Z,99.90
2022-11-24T16:18:50.503Z,99.90
2022-11-24T16:21:17.744Z,99.90
2022-11-24T16:23:45.563Z,99.90
2022-11-24T16:26:13.031Z,99.90
2022-11-24T16:28:40.632Z,99.90
2022-11-24T16:31:08.249Z,99.90
2022-11-24T16:33:38.497Z,99.90
2022-11-24T16:36:06.204Z,99.90
2022-11-24T16:38:35.401Z,99.90
2022-11-24T16:41:02.574Z,99.90
2022-11-24T16:43:30.003Z,99.90
2022-11-24T16:46:21.461Z,99.90
2022-11-24T16:48:51.313Z,99.90
2022-11-24T16:51:20.591Z,99.90
2022-11-24T16:53:48.571Z,99.90
2022-11-24T16:56:16.375Z,99.90
2022-11-24T16:58:43.550Z,99.90
2022-11-24T17:01:12.740Z,99.90
2022-11-24T17:03:40.285Z,99.90
2022-11-24T17:06:11.129Z,99.90
2022-11-24T17:08:40.228Z,99.90
2022-11-24T17:11:16.210Z,99.90
2022-11-24T17:13:45.363Z,99.90
2022-11-24T17:16:17.740Z,99.90
2022-11-24T17:18:46.024Z,99.90
2022-11-24T17:21:18.871Z,99.90
2022-11-24T17:23:47.303Z,99.90
2022-11-24T17:26:17.462Z,99.90
2022-11-24T17:28:45.254Z,99.90
2022-11-24T17:31:32.856Z,99.90
2022-11-24T17:34:00.520Z,99.90
2022-11-24T17:36:30.253Z,99.90
2022-11-24T17:38:59.864Z,99.90
2022-11-24T17:41:27.818Z,99.90
2022-11-24T17:43:56.505Z,99.90
2022-11-24T17:46:25.309Z,99.90
2022-11-24T17:48:53.416Z,99.90
2022-11-24T17:51:23.583Z,99.90
2022-11-24T17:53:52.279Z,99.90
2022-11-24T17:56:23.442Z,99.90
2022-11-24T17:58:56.024Z,99.90
2022-11-24T18:01:24.188Z,99.90
2022-11-24T18:03:53.776Z,99.90
2022-11-24T18:06:24.841Z,99.90
2022-11-24T18:08:52.948Z,99.90
2022-11-24T18:11:30.235Z,99.90
2022-11-24T18:14:01.859Z,99.90
2022-11-24T18:16:31.492Z,99.90
2022-11-24T18:19:09.884Z,99.90
2022-11-24T18:21:44.547Z,99.90
2022-11-24T18:24:13.803Z,99.90
2022-11-24T18:26:42.367Z,99.90
2022-11-24T18:29:11.005Z,99.90
2022-11-24T18:31:38.584Z,99.90
2022-11-24T18:34:06.719Z,99.90
2022-11-24T18:36:34.926Z,99.90
2022-11-24T18:39:04.515Z,99.90
2022-11-24T18:41:31.874Z,99.90
2022-11-24T18:44:02.184Z,99.90
2022-11-24T18:46:30.151Z,99.90
2022-11-24T18:48:57.635Z,99.90
2022-11-24T18:51:25.187Z,99.90
2022-11-24T18:54:04.590Z,99.90
2022-11-24T18:56:31.987Z,99.90
2022-11-24T18:58:59.301Z,99.90
2022-11-24T19:01:28.821Z,99.90
2022-11-24T19:04:01.991Z,99.90
2022-11-24T19:06:37.162Z,99.90
2022-11-24T19:09:07.470Z,99.90
2022-11-24T19:11:37.704Z,99.90
2022-11-24T19:14:07.296Z,99.90
2022-11-24T19:16:35.407Z,99.90
2022-11-24T19:19:03.779Z,99.90
2022-11-24T19:21:37.105Z,99.90
2022-11-24T19:24:06.050Z,99.90
2022-11-24T19:26:35.019Z,99.90
2022-11-24T19:29:04.095Z,99.90
2022-11-24T19:31:31.776Z,99.90
2022-11-24T19:33:59.685Z,99.90
2022-11-24T19:36:27.249Z,99.90
2022-11-24T19:38:56.672Z,99.90
2022-11-24T19:41:27.305Z,99.90
2022-11-24T19:43:55.070Z,99.90
2022-11-24T19:46:26.069Z,99.90
2022-11-24T19:48:55.303Z,99.90
2022-11-24T19:51:25.642Z,99.90
2022-11-24T19:53:53.763Z,99.90
2022-11-24T19:56:22.951Z,99.90
2022-11-24T19:58:51.930Z,99.90
2022-11-24T20:01:25.670Z,99.90
2022-11-24T20:04:02.045Z,99.90
2022-11-24T20:06:32.227Z,99.90
2022-11-24T20:09:01.114Z,99.90
2022-11-24T20:11:29.495Z,99.90
2022-11-24T20:13:57.727Z,99.90
2022-11-24T20:16:29.340Z,99.90
2022-11-24T20:18:58.887Z,99.90
2022-11-24T20:21:28.677Z,99.90
2022-11-24T20:24:01.455Z,99.90
2022-11-24T20:26:34.472Z,99.90
2022-11-24T20:29:02.423Z,99.90
2022-11-24T20:31:33.154Z,99.90
2022-11-24T20:34:02.053Z,99.90
2022-11-24T20:36:31.331Z,99.90
2022-11-24T20:39:00.726Z,99.90
2022-11-24T20:41:32.056Z,99.90
2022-11-24T20:44:03.855Z,99.90
2022-11-24T20:46:33.601Z,99.90
2022-11-24T20:49:03.300Z,99.90
2022-11-24T20:51:34.238Z,99.90
2022-11-24T20:54:04.404Z,99.90
2022-11-24T20:56:35.058Z,99.90
2022-11-24T20:59:03.523Z,99.90
2022-11-24T21:01:38.325Z,99.90
2022-11-24T21:04:08.195Z,99.90
2022-11-24T21:06:35.917Z,99.90
2022-11-24T21:09:04.732Z,99.90
2022-11-24T21:11:32.780Z,99.90
2022-11-24T21:14:01.200Z,99.90
2022-11-24T21:16:31.059Z,99.90
2022-11-24T21:19:01.043Z,99.90
2022-11-24T21:21:35.721Z,99.90
2022-11-24T21:24:05.874Z,99.90
2022-11-24T21:26:37.365Z,99.90
2022-11-24T21:29:05.764Z,99.90
2022-11-24T21:31:38.319Z,99.90
2022-11-24T21:34:07.581Z,99.90
2022-11-24T21:36:35.636Z,99.90
2022-11-24T21:39:03.741Z,99.90
2022-11-24T21:41:33.308Z,99.90
2022-11-24T21:44:01.061Z,99.90
2022-11-24T21:46:39.080Z,99.90
2022-11-24T21:49:09.686Z,99.90
2022-11-24T21:51:36.902Z,99.90
2022-11-24T21:54:04.287Z,99.90
2022-11-24T21:56:31.943Z,99.90
2022-11-24T21:58:59.147Z,99.90
2022-11-24T22:01:28.070Z,99.90
2022-11-24T22:03:56.020Z,99.90
2022-11-24T22:06:23.611Z,99.90
2022-11-24T22:08:50.983Z,99.90
2022-11-24T22:11:21.175Z,99.90
2022-11-24T22:13:49.567Z,99.90
2022-11-24T22:16:22.652Z,99.90
2022-11-24T22:18:50.806Z,99.90
2022-11-24T22:21:30.492Z,99.90
2022-11-24T22:23:57.711Z,99.90
2022-11-24T22:26:25.517Z,99.90
2022-11-24T22:28:54.504Z,99.90
2022-11-24T22:31:24.140Z,99.90
2022-11-24T22:33:52.076Z,99.90
2022-11-24T22:36:21.217Z,99.90
2022-11-24T22:38:56.891Z,99.90
2022-11-24T22:41:24.280Z,99.90
2022-11-24T22:43:51.779Z,99.90
2022-11-24T22:46:21.850Z,99.90
2022-11-24T22:48:50.443Z,99.90
2022-11-24T22:51:19.728Z,99.90
2022-11-24T22:53:48.946Z,99.90
2022-11-24T22:56:17.332Z,99.90
2022-11-24T22:58:45.229Z,99.90
2022-11-24T23:01:24.239Z,99.90
2022-11-24T23:03:54.286Z,99.90
2022-11-24T23:06:29.379Z,99.90
2022-11-24T23:08:57.959Z,99.90
2022-11-24T23:11:32.617Z,99.90
2022-11-24T23:14:02.317Z,99.90
2022-11-24T23:16:30.279Z,99.90
2022-11-24T23:18:57.829Z,99.90
2022-11-24T23:21:30.114Z,99.90
2022-11-24T23:23:59.811Z,99.90
2022-11-24T23:26:33.531Z,99.90
2022-11-24T23:29:00.766Z,99.90
2022-11-24T23:31:28.867Z,99.90
2022-11-24T23:34:02.209Z,99.90
2022-11-24T23:36:30.168Z,99.90
2022-11-24T23:39:02.156Z,99.90
2022-11-24T23:41:30.224Z,99.90
2022-11-24T23:43:57.515Z,99.90
2022-11-24T23:46:26.779Z,99.90
2022-11-24T23:48:55.228Z,99.90
2022-11-24T23:51:27.859Z,99.90
2022-11-24T23:53:55.883Z,99.90
2022-11-24T23:56:25.544Z,99.90
2022-11-24T23:58:52.789Z,99.90
